createdAt,value
2017-11-22T00:00:37.304Z,46.10
2017-11-22T00:03:04.763Z,42.53
2017-11-22T00:05:37.965Z,40.92
2017-11-22T00:08:05.414Z,29.95
2017-11-22T00:10:32.880Z,41.63
2017-11-22T00:13:00.329Z,34.95
2017-11-22T00:15:27.890Z,36.70
2017-11-22T00:17:55.346Z,48.97
2017-11-22T00:20:22.797Z,47.38
2017-11-22T00:22:50.259Z,43.83
2017-11-22T00:25:17.706Z,40.78
2017-11-22T00:27:45.170Z,47.28
2017-11-22T00:30:12.622Z,41.45
2017-11-22T00:32:40.070Z,38.78
2017-11-22T00:35:07.533Z,48.13
2017-11-22T00:37:35.104Z,33.45
2017-11-22T00:40:02.551Z,54.70
2017-11-22T00:42:30.015Z,43.40
2017-11-22T00:44:57.576Z,39.50
2017-11-22T00:47:25.039Z,30.25
2017-11-22T00:49:52.490Z,37.03
2017-11-22T00:52:19.950Z,33.63
2017-11-22T00:54:47.402Z,27.58
2017-11-22T00:57:14.866Z,31.45
2017-11-22T00:59:42.318Z,42.13
2017-11-22T01:02:09.875Z,38.67
2017-11-22T01:04:37.431Z,43.75
2017-11-22T01:07:04.910Z,46.17
2017-11-22T01:09:32.358Z,46.37
2017-11-22T01:11:59.822Z,47.17
2017-11-22T01:14:28.790Z,37.78
2017-11-22T01:16:56.261Z,41.80
2017-11-22T01:19:23.710Z,46.28
2017-11-22T01:21:51.271Z,49.28
2017-11-22T01:24:18.725Z,41.60
2017-11-22T01:26:46.184Z,48.20
2017-11-22T01:29:13.642Z,50.88
2017-11-22T01:31:41.199Z,47.55
2017-11-22T01:34:08.655Z,48.58
2017-11-22T01:36:36.111Z,48.67
2017-11-22T01:39:03.570Z,45.58
2017-11-22T01:41:31.025Z,52.42
2017-11-22T01:43:58.485Z,45.53
2017-11-22T01:46:25.934Z,43.67
2017-11-22T01:48:53.394Z,34.10
2017-11-22T01:51:20.855Z,38.30
2017-11-22T01:53:48.315Z,34.60
2017-11-22T01:56:15.870Z,30.77
2017-11-22T01:58:43.343Z,34.88
2017-11-22T02:01:10.791Z,33.13
2017-11-22T02:03:38.255Z,30.92
2017-11-22T02:06:05.710Z,32.25
2017-11-22T02:08:33.174Z,35.10
2017-11-22T02:11:00.618Z,34.45
2017-11-22T02:13:28.082Z,35.85
2017-11-22T02:15:55.626Z,34.30
2017-11-22T02:18:23.187Z,29.85
2017-11-22T02:20:50.650Z,26.90
2017-11-22T02:23:18.103Z,29.17
2017-11-22T02:25:45.575Z,31.08
2017-11-22T02:28:13.030Z,31.75
2017-11-22T02:30:40.494Z,39.35
2017-11-22T02:33:08.715Z,43.55
2017-11-22T02:35:36.208Z,34.75
2017-11-22T02:38:03.670Z,36.20
2017-11-22T02:40:31.926Z,34.95
2017-11-22T02:42:59.491Z,31.58
2017-11-22T02:45:26.957Z,31.50
2017-11-22T02:47:54.414Z,49.08
2017-11-22T02:50:21.883Z,37.55
2017-11-22T02:52:49.338Z,40.40
2017-11-22T02:55:16.803Z,37.17
2017-11-22T02:57:45.026Z,30.95
2017-11-22T03:00:12.494Z,32.92
2017-11-22T03:02:39.950Z,32.03
2017-11-22T03:05:07.419Z,34.90
2017-11-22T03:07:34.872Z,31.62
2017-11-22T03:10:02.441Z,34.03
2017-11-22T03:12:29.907Z,38.13
2017-11-22T03:14:58.132Z,22.60
2017-11-22T03:17:25.582Z,28.87
2017-11-22T03:19:53.047Z,31.70
2017-11-22T03:22:20.498Z,29.50
2017-11-22T03:24:47.966Z,24.45
2017-11-22T03:27:15.458Z,34.30
2017-11-22T03:29:43.015Z,25.30
2017-11-22T03:32:10.468Z,23.65
2017-11-22T03:34:37.923Z,30.73
2017-11-22T03:37:05.387Z,28.48
2017-11-22T03:39:32.839Z,27.27
2017-11-22T03:42:00.307Z,30.85
2017-11-22T03:44:27.763Z,26.92
2017-11-22T03:46:55.223Z,31.05
2017-11-22T03:49:22.679Z,31.40
2017-11-22T03:51:55.796Z,29.08
2017-11-22T03:54:24.020Z,36.45
2017-11-22T03:56:51.479Z,35.50
2017-11-22T03:59:18.930Z,36.72
2017-11-22T04:01:46.406Z,39.60
2017-11-22T04:04:16.429Z,38.13
2017-11-22T04:06:43.894Z,34.72
2017-11-22T04:09:11.353Z,27.80
2017-11-22T04:11:38.914Z,33.90
2017-11-22T04:14:06.356Z,42.35
2017-11-22T04:16:33.818Z,33.58
2017-11-22T04:19:06.948Z,43.65
2017-11-22T04:21:34.403Z,20.65
2017-11-22T04:24:01.872Z,25.70
2017-11-22T04:26:29.340Z,39.58
2017-11-22T04:28:56.822Z,41.58
2017-11-22T04:31:25.254Z,43.60
2017-11-22T04:33:52.758Z,41.83
2017-11-22T04:36:20.225Z,42.58
2017-11-22T04:38:47.775Z,38.03
2017-11-22T04:41:15.234Z,33.85
2017-11-22T04:43:42.689Z,32.17
2017-11-22T04:46:10.169Z,26.12
2017-11-22T04:48:37.622Z,28.10
2017-11-22T04:51:07.086Z,26.08
2017-11-22T04:53:36.317Z,29.35
2017-11-22T04:56:04.792Z,34.55
2017-11-22T04:58:36.051Z,36.95
2017-11-22T05:01:03.506Z,35.03
2017-11-22T05:03:30.965Z,36.05
2017-11-22T05:05:59.227Z,31.27
2017-11-22T05:08:26.690Z,38.08
2017-11-22T05:10:55.659Z,34.85
2017-11-22T05:13:23.122Z,39.25
2017-11-22T05:15:50.579Z,42.60
2017-11-22T05:18:18.042Z,29.67
2017-11-22T05:20:45.495Z,27.35
2017-11-22T05:23:12.962Z,22.40
2017-11-22T05:25:40.420Z,28.58
2017-11-22T05:28:07.887Z,21.05
2017-11-22T05:30:35.336Z,24.50
2017-11-22T05:33:02.794Z,20.10
2017-11-22T05:35:30.246Z,21.08
2017-11-22T05:37:57.711Z,19.87
2017-11-22T05:40:25.970Z,18.55
2017-11-22T05:42:53.449Z,18.48
2017-11-22T05:45:20.898Z,18.45
2017-11-22T05:47:49.123Z,17.12
2017-11-22T05:50:16.614Z,20.92
2017-11-22T05:52:44.082Z,22.30
2017-11-22T05:55:11.536Z,23.62
2017-11-22T05:57:40.646Z,36.15
2017-11-22T06:00:08.100Z,32.75
2017-11-22T06:02:35.559Z,24.50
2017-11-22T06:05:03.018Z,22.70
2017-11-22T06:07:30.463Z,23.02
2017-11-22T06:09:57.980Z,22.85
2017-11-22T06:12:25.439Z,22.20
2017-11-22T06:14:52.894Z,29.75
2017-11-22T06:17:20.356Z,30.33
2017-11-22T06:19:47.809Z,27.40
2017-11-22T06:22:15.281Z,30.08
2017-11-22T06:24:42.734Z,17.87
2017-11-22T06:27:10.194Z,18.55
2017-11-22T06:29:43.646Z,20.25
2017-11-22T06:32:11.867Z,27.95
2017-11-22T06:34:39.323Z,34.83
2017-11-22T06:37:06.778Z,42.22
2017-11-22T06:39:34.241Z,30.10
2017-11-22T06:42:01.695Z,39.25
2017-11-22T06:44:29.262Z,35.75
2017-11-22T06:46:56.715Z,27.50
2017-11-22T06:49:24.179Z,25.70
2017-11-22T06:51:51.629Z,25.37
2017-11-22T06:54:19.086Z,21.33
2017-11-22T06:56:46.540Z,19.20
2017-11-22T06:59:13.999Z,19.45
2017-11-22T07:01:53.376Z,25.48
2017-11-22T07:04:21.967Z,20.12
2017-11-22T07:06:50.192Z,19.27
2017-11-22T07:09:17.759Z,16.27
2017-11-22T07:11:45.210Z,16.48
2017-11-22T07:14:12.668Z,15.05
2017-11-22T07:16:45.801Z,15.13
2017-11-22T07:19:14.038Z,15.85
2017-11-22T07:21:41.486Z,17.60
2017-11-22T07:24:08.946Z,17.62
2017-11-22T07:26:36.402Z,24.00
2017-11-22T07:29:03.866Z,15.35
2017-11-22T07:31:31.318Z,19.33
2017-11-22T07:33:58.775Z,18.98
2017-11-22T07:36:31.811Z,19.25
2017-11-22T07:39:00.024Z,20.30
2017-11-22T07:41:27.703Z,19.42
2017-11-22T07:43:55.150Z,22.35
2017-11-22T07:46:25.528Z,27.08
2017-11-22T07:48:53.755Z,21.33
2017-11-22T07:51:26.896Z,21.85
2017-11-22T07:53:54.337Z,20.30
2017-11-22T07:56:22.567Z,20.80
2017-11-22T07:58:50.022Z,23.80
2017-11-22T08:01:17.591Z,22.70
2017-11-22T08:03:48.961Z,29.12
2017-11-22T08:06:16.499Z,29.70
2017-11-22T08:08:43.959Z,53.25
2017-11-22T08:11:11.412Z,36.13
2017-11-22T08:13:38.875Z,34.47
2017-11-22T08:16:06.326Z,34.42
2017-11-22T08:18:33.786Z,39.25
2017-11-22T08:21:01.257Z,31.95
2017-11-22T08:23:28.710Z,28.75
2017-11-22T08:25:56.165Z,30.67
2017-11-22T08:28:23.625Z,34.38
2017-11-22T08:30:51.090Z,30.02
2017-11-22T08:33:18.530Z,28.02
2017-11-22T08:35:45.995Z,37.78
2017-11-22T08:38:13.538Z,36.13
2017-11-22T08:40:41.006Z,31.17
2017-11-22T08:43:14.152Z,24.90
2017-11-22T08:45:41.622Z,23.30
2017-11-22T08:48:09.075Z,20.85
2017-11-22T08:50:36.536Z,19.12
2017-11-22T08:53:03.987Z,19.30
2017-11-22T08:55:37.301Z,20.00
2017-11-22T08:58:10.591Z,18.25
2017-11-22T09:00:38.063Z,23.17
2017-11-22T09:03:05.519Z,22.15
2017-11-22T09:05:37.897Z,19.52
2017-11-22T09:08:05.454Z,21.30
2017-11-22T09:10:33.007Z,22.13
2017-11-22T09:13:06.299Z,21.85
2017-11-22T09:15:33.748Z,21.58
2017-11-22T09:18:07.003Z,21.98
2017-11-22T09:20:34.455Z,24.17
2017-11-22T09:23:01.910Z,24.90
2017-11-22T09:25:29.358Z,24.83
2017-11-22T09:27:57.699Z,22.67
2017-11-22T09:30:25.145Z,23.55
2017-11-22T09:32:52.608Z,23.75
2017-11-22T09:35:20.059Z,20.00
2017-11-22T09:37:47.526Z,20.83
2017-11-22T09:40:14.977Z,23.83
2017-11-22T09:42:42.435Z,20.88
2017-11-22T09:45:09.886Z,22.73
2017-11-22T09:47:37.349Z,22.83
2017-11-22T09:50:04.810Z,20.20
2017-11-22T09:52:32.366Z,19.60
2017-11-22T09:54:59.818Z,19.33
2017-11-22T09:57:27.265Z,16.02
2017-11-22T09:59:54.724Z,16.52
2017-11-22T10:02:23.185Z,17.08
2017-11-22T10:04:50.650Z,17.35
2017-11-22T10:07:18.101Z,17.17
2017-11-22T10:09:45.555Z,16.65
2017-11-22T10:12:13.014Z,15.40
2017-11-22T10:14:40.475Z,17.00
2017-11-22T10:17:11.942Z,17.10
2017-11-22T10:19:43.448Z,18.15
2017-11-22T10:22:10.911Z,18.02
2017-11-22T10:24:48.263Z,15.57
2017-11-22T10:27:21.458Z,15.98
2017-11-22T10:29:48.912Z,15.70
2017-11-22T10:32:20.355Z,16.62
2017-11-22T10:34:47.809Z,17.27
2017-11-22T10:37:15.271Z,14.75
2017-11-22T10:39:42.731Z,17.90
2017-11-22T10:42:10.182Z,15.70
2017-11-22T10:44:37.736Z,14.75
2017-11-22T10:47:05.195Z,15.95
2017-11-22T10:49:32.667Z,16.98
2017-11-22T10:52:00.102Z,16.33
2017-11-22T10:54:27.572Z,16.35
2017-11-22T10:56:55.026Z,16.35
2017-11-22T10:59:22.483Z,14.85
2017-11-22T11:01:51.467Z,14.05
2017-11-22T11:04:18.935Z,15.50
2017-11-22T11:06:46.388Z,15.10
2017-11-22T11:09:13.860Z,15.38
2017-11-22T11:11:41.311Z,13.90
2017-11-22T11:14:08.827Z,12.93
2017-11-22T11:16:36.291Z,13.25
2017-11-22T11:19:03.866Z,13.75
2017-11-22T11:21:31.323Z,15.02
2017-11-22T11:23:58.790Z,13.50
2017-11-22T11:26:26.242Z,12.95
2017-11-22T11:28:53.717Z,13.70
2017-11-22T11:31:21.164Z,13.85
2017-11-22T11:33:48.642Z,12.90
2017-11-22T11:36:28.491Z,12.80
2017-11-22T11:38:56.719Z,10.95
2017-11-22T11:41:24.187Z,12.40
2017-11-22T11:43:51.645Z,13.82
2017-11-22T11:46:19.110Z,15.23
2017-11-22T11:48:46.568Z,12.23
2017-11-22T11:51:14.029Z,12.65
2017-11-22T11:53:41.575Z,13.00
2017-11-22T11:56:09.043Z,11.60
2017-11-22T11:58:36.510Z,15.20
2017-11-22T12:01:04.743Z,12.63
2017-11-22T12:03:32.206Z,12.95
2017-11-22T12:05:59.675Z,12.13
2017-11-22T12:08:27.143Z,12.82
2017-11-22T12:10:54.619Z,13.88
2017-11-22T12:13:22.846Z,13.68
2017-11-22T12:15:50.326Z,14.43
2017-11-22T12:18:17.801Z,12.60
2017-11-22T12:21:04.742Z,11.00
2017-11-22T12:23:38.779Z,13.10
2017-11-22T12:26:06.272Z,11.70
2017-11-22T12:28:33.727Z,13.75
2017-11-22T12:31:01.894Z,14.50
2017-11-22T12:33:29.346Z,12.90
2017-11-22T12:35:56.807Z,11.27
2017-11-22T12:38:24.282Z,13.23
2017-11-22T12:40:51.739Z,11.20
2017-11-22T12:43:19.290Z,11.67
2017-11-22T12:45:46.741Z,12.27
2017-11-22T12:48:14.211Z,11.17
2017-11-22T12:50:42.437Z,11.20
2017-11-22T12:53:09.910Z,11.53
2017-11-22T12:55:37.365Z,11.80
2017-11-22T12:58:14.393Z,10.55
2017-11-22T13:00:42.625Z,11.97
2017-11-22T13:03:10.092Z,9.07
2017-11-22T13:05:37.546Z,6.60
2017-11-22T13:08:05.019Z,6.20
2017-11-22T13:10:33.396Z,6.45
2017-11-22T13:13:00.862Z,6.10
2017-11-22T13:15:29.807Z,5.53
2017-11-22T13:17:57.279Z,7.10
2017-11-22T13:20:24.733Z,9.10
2017-11-22T13:22:52.195Z,9.80
2017-11-22T13:25:19.664Z,10.60
2017-11-22T13:27:47.118Z,10.33
2017-11-22T13:30:14.583Z,10.95
2017-11-22T13:32:42.142Z,9.45
2017-11-22T13:35:09.615Z,8.48
2017-11-22T13:37:37.838Z,7.80
2017-11-22T13:40:05.316Z,6.12
2017-11-22T13:42:32.782Z,6.27
2017-11-22T13:45:00.251Z,6.47
2017-11-22T13:47:27.803Z,6.20
2017-11-22T13:49:55.267Z,7.60
2017-11-22T13:52:22.725Z,6.87
2017-11-22T13:54:50.186Z,6.33
2017-11-22T13:57:17.639Z,5.67
2017-11-22T13:59:45.098Z,5.63
2017-11-22T14:02:12.642Z,5.17
2017-11-22T14:04:40.102Z,6.00
2017-11-22T14:07:07.560Z,6.20
2017-11-22T14:09:35.022Z,7.00
2017-11-22T14:12:02.573Z,7.43
2017-11-22T14:14:30.031Z,9.17
2017-11-22T14:16:57.587Z,8.80
2017-11-22T14:19:25.053Z,9.53
2017-11-22T14:21:52.510Z,9.40
2017-11-22T14:24:19.974Z,10.17
2017-11-22T14:26:47.427Z,8.13
2017-11-22T14:29:14.879Z,9.20
2017-11-22T14:31:42.360Z,9.93
2017-11-22T14:34:10.588Z,8.90
2017-11-22T14:36:38.051Z,9.70
2017-11-22T14:39:05.503Z,8.73
2017-11-22T14:41:32.974Z,8.38
2017-11-22T14:44:00.439Z,7.23
2017-11-22T14:46:27.908Z,7.13
2017-11-22T14:48:55.351Z,8.30
2017-11-22T14:51:22.808Z,8.30
2017-11-22T14:53:50.265Z,8.43
2017-11-22T14:56:17.816Z,8.53
2017-11-22T14:58:45.375Z,8.40
2017-11-22T15:01:12.841Z,9.00
2017-11-22T15:03:40.292Z,9.50
2017-11-22T15:06:07.754Z,10.13
2017-11-22T15:08:35.298Z,10.40
2017-11-22T15:11:02.771Z,9.87
2017-11-22T15:13:30.228Z,11.70
2017-11-22T15:15:57.770Z,10.17
2017-11-22T15:18:25.990Z,12.70
2017-11-22T15:20:53.462Z,11.98
2017-11-22T15:23:20.963Z,14.27
2017-11-22T15:25:48.431Z,12.20
2017-11-22T15:28:15.983Z,11.85
2017-11-22T15:30:43.451Z,11.70
2017-11-22T15:33:10.911Z,11.80
2017-11-22T15:35:38.378Z,13.48
2017-11-22T15:38:06.599Z,12.53
2017-11-22T15:40:34.080Z,11.25
2017-11-22T15:43:01.531Z,12.70
2017-11-22T15:45:29.098Z,12.23
2017-11-22T15:47:56.563Z,13.27
2017-11-22T15:50:24.028Z,18.42
2017-11-22T15:52:51.483Z,13.95
2017-11-22T15:55:18.939Z,15.27
2017-11-22T15:57:46.405Z,15.60
2017-11-22T16:00:14.632Z,15.82
2017-11-22T16:02:42.098Z,14.67
2017-11-22T16:05:09.601Z,13.80
2017-11-22T16:07:37.133Z,15.70
2017-11-22T16:10:04.592Z,16.10
2017-11-22T16:12:32.057Z,17.83
2017-11-22T16:14:59.550Z,18.33
2017-11-22T16:17:27.060Z,17.42
2017-11-22T16:19:54.549Z,18.67
2017-11-22T16:22:22.767Z,16.35
2017-11-22T16:24:50.227Z,16.75
2017-11-22T16:27:17.699Z,17.92
2017-11-22T16:29:45.196Z,18.50
2017-11-22T16:32:13.456Z,19.45
2017-11-22T16:34:40.902Z,19.87
2017-11-22T16:37:08.362Z,19.40
2017-11-22T16:39:35.819Z,16.30
2017-11-22T16:42:03.328Z,20.05
2017-11-22T16:44:30.816Z,25.60
2017-11-22T16:46:58.323Z,22.10
2017-11-22T16:49:26.547Z,24.10
2017-11-22T16:51:54.043Z,27.37
2017-11-22T16:54:22.258Z,24.75
2017-11-22T16:56:49.744Z,26.65
2017-11-22T16:59:17.198Z,27.23
2017-11-22T17:01:44.800Z,30.25
2017-11-22T17:04:13.069Z,29.23
2017-11-22T17:06:41.281Z,28.58
2017-11-22T17:09:08.746Z,27.13
2017-11-22T17:11:36.235Z,27.85
2017-11-22T17:14:03.825Z,27.20
2017-11-22T17:16:32.039Z,27.50
2017-11-22T17:18:59.502Z,24.63
2017-11-22T17:21:26.962Z,29.80
2017-11-22T17:23:54.431Z,30.20
2017-11-22T17:26:21.887Z,28.58
2017-11-22T17:28:49.355Z,28.25
2017-11-22T17:31:18.309Z,25.02
2017-11-22T17:33:45.799Z,23.08
2017-11-22T17:36:13.288Z,23.50
2017-11-22T17:38:41.549Z,20.67
2017-11-22T17:41:09.050Z,22.92
2017-11-22T17:43:36.511Z,18.35
2017-11-22T17:46:04.012Z,20.95
2017-11-22T17:48:31.704Z,20.15
2017-11-22T17:50:59.957Z,22.83
2017-11-22T17:53:27.540Z,25.33
2017-11-22T17:55:55.752Z,25.48
2017-11-22T17:58:23.246Z,29.12
2017-11-22T18:00:50.697Z,31.92
2017-11-22T18:03:18.149Z,32.42
2017-11-22T18:05:45.746Z,35.63
2017-11-22T18:08:13.961Z,36.35
2017-11-22T18:10:41.409Z,31.50
2017-11-22T18:13:08.927Z,31.92
2017-11-22T18:15:37.176Z,33.30
2017-11-22T18:18:04.698Z,33.42
2017-11-22T18:20:32.229Z,33.90
2017-11-22T18:23:00.489Z,39.28
2017-11-22T18:25:28.092Z,42.65
2017-11-22T18:27:55.585Z,48.50
2017-11-22T18:30:23.030Z,43.75
2017-11-22T18:32:53.826Z,38.28
2017-11-22T18:35:21.274Z,37.67
2017-11-22T18:37:48.821Z,26.75
2017-11-22T18:40:17.033Z,22.17
2017-11-22T18:42:44.518Z,18.50
2017-11-22T18:45:12.017Z,18.27
2017-11-22T18:47:40.267Z,18.87
2017-11-22T18:50:07.855Z,17.35
2017-11-22T18:52:35.354Z,18.15
2017-11-22T18:55:04.050Z,17.30
2017-11-22T18:57:32.689Z,18.33
2017-11-22T19:00:00.950Z,17.15
2017-11-22T19:02:29.183Z,15.63
2017-11-22T19:04:56.694Z,14.30
2017-11-22T19:07:24.953Z,21.12
2017-11-22T19:09:55.214Z,22.95
2017-11-22T19:12:22.709Z,23.80
2017-11-22T19:14:50.158Z,17.48
2017-11-22T19:17:17.603Z,15.15
2017-11-22T19:19:45.112Z,14.50
2017-11-22T19:22:13.364Z,14.38
2017-11-22T19:24:40.871Z,13.23
2017-11-22T19:27:08.366Z,14.45
2017-11-22T19:29:35.806Z,15.30
2017-11-22T19:32:03.324Z,14.90
2017-11-22T19:34:32.565Z,15.73
2017-11-22T19:37:00.054Z,10.82
2017-11-22T19:39:28.305Z,11.10
2017-11-22T19:41:55.805Z,12.73
2017-11-22T19:44:24.049Z,11.55
2017-11-22T19:46:51.642Z,11.23
2017-11-22T19:49:19.894Z,8.05
2017-11-22T19:51:47.342Z,7.50
2017-11-22T19:54:14.938Z,7.22
2017-11-22T19:56:43.205Z,9.98
2017-11-22T19:59:11.461Z,8.30
2017-11-22T20:01:39.714Z,7.07
2017-11-22T20:04:07.388Z,7.50
2017-11-22T20:06:34.889Z,9.95
2017-11-22T20:09:03.300Z,13.57
2017-11-22T20:11:30.784Z,11.43
2017-11-22T20:13:58.289Z,11.07
2017-11-22T20:16:25.724Z,11.95
2017-11-22T20:18:54.105Z,8.88
2017-11-22T20:21:22.337Z,8.27
2017-11-22T20:23:49.847Z,9.23
2017-11-22T20:26:18.070Z,9.65
2017-11-22T20:28:45.594Z,8.45
2017-11-22T20:31:13.090Z,10.52
2017-11-22T20:33:40.683Z,10.52
2017-11-22T20:36:08.915Z,9.60
2017-11-22T20:38:36.411Z,10.20
2017-11-22T20:41:04.693Z,10.45
2017-11-22T20:43:32.960Z,8.45
2017-11-22T20:46:02.231Z,8.70
2017-11-22T20:48:29.724Z,10.98
2017-11-22T20:50:57.956Z,10.48
2017-11-22T20:53:25.403Z,7.70
2017-11-22T20:55:52.909Z,6.70
2017-11-22T20:58:21.163Z,5.25
2017-11-22T21:00:48.644Z,5.50
2017-11-22T21:03:16.898Z,6.10
2017-11-22T21:05:44.383Z,5.53
2017-11-22T21:08:12.629Z,6.87
2017-11-22T21:10:40.112Z,5.82
2017-11-22T21:13:08.398Z,5.82
2017-11-22T21:15:36.640Z,6.05
2017-11-22T21:18:04.603Z,5.60
2017-11-22T21:20:32.099Z,6.85
2017-11-22T21:23:00.341Z,5.35
2017-11-22T21:25:27.840Z,7.07
2017-11-22T21:27:55.376Z,6.72
2017-11-22T21:30:23.642Z,6.75
2017-11-22T21:32:51.126Z,5.82
2017-11-22T21:35:19.340Z,5.70
2017-11-22T21:37:46.837Z,5.57
2017-11-22T21:40:14.288Z,5.93
2017-11-22T21:42:41.773Z,7.40
2017-11-22T21:45:09.258Z,7.10
2017-11-22T21:47:36.744Z,5.87
2017-11-22T21:50:04.239Z,4.82
2017-11-22T21:52:32.497Z,6.68
2017-11-22T21:54:59.990Z,5.60
2017-11-22T21:57:27.431Z,6.65
2017-11-22T22:02:39.182Z,5.65
2017-11-22T22:05:06.696Z,5.80
2017-11-22T22:07:34.946Z,4.55
2017-11-22T22:10:03.206Z,6.30
2017-11-22T22:12:30.684Z,5.80
2017-11-22T22:14:58.257Z,5.82
2017-11-22T22:17:26.502Z,4.62
2017-11-22T22:19:53.985Z,7.25
2017-11-22T22:22:22.237Z,5.93
2017-11-22T22:24:49.673Z,4.85
2017-11-22T22:27:17.127Z,3.37
2017-11-22T22:29:44.622Z,3.22
2017-11-22T22:32:12.100Z,3.87
2017-11-22T22:34:40.360Z,3.40
2017-11-22T22:37:08.608Z,3.67
2017-11-22T22:39:36.156Z,4.53
2017-11-22T22:42:03.791Z,4.20
2017-11-22T22:44:31.261Z,5.68
2017-11-22T22:46:58.749Z,4.12
2017-11-22T22:49:26.240Z,5.90
2017-11-22T22:51:54.469Z,5.18
2017-11-22T22:54:21.953Z,4.95
2017-11-22T22:56:49.441Z,5.75
2017-11-22T22:59:16.896Z,6.28
2017-11-22T23:01:44.390Z,4.97
2017-11-22T23:04:11.846Z,4.43
2017-11-22T23:06:39.452Z,4.18
2017-11-22T23:09:07.654Z,5.20
2017-11-22T23:11:35.112Z,5.62
2017-11-22T23:14:02.643Z,5.95
2017-11-22T23:16:31.016Z,8.20
2017-11-22T23:18:59.225Z,8.85
2017-11-22T23:21:26.718Z,9.68
2017-11-22T23:23:54.176Z,10.05
2017-11-22T23:26:21.631Z,11.60
2017-11-22T23:28:49.083Z,11.77
2017-11-22T23:31:16.639Z,10.85
2017-11-22T23:33:44.141Z,10.68
2017-11-22T23:36:12.389Z,12.07
2017-11-22T23:38:39.836Z,9.57
2017-11-22T23:41:07.286Z,8.00
2017-11-22T23:43:34.747Z,8.73
2017-11-22T23:46:02.188Z,6.80
2017-11-22T23:48:29.642Z,7.10
2017-11-22T23:50:57.099Z,8.05
2017-11-22T23:53:24.553Z,7.30
2017-11-22T23:55:52.000Z,6.55
2017-11-22T23:58:19.451Z,5.22
